METAR Data
IDs: Format: Raw Decoded Include TAF

Data at: 0925 UTC 25 Mar 2019

METAR for:KHCR (Heber City Muni, UT, US)
Text:KHCR 250915Z AUTO 00000KT 10SM CLR M03/M05 A3031 RMK AO2
Temperature: -3.0°C ( 27°F)
Dewpoint: -5.0°C ( 23°F) [RH = 86%]
Pressure (altimeter):30.31 inches Hg (1026.5 mb)
Winds:calm
Visibility:10 or more sm (16+ km)
Ceiling:at least 12,000 feet AGL
Clouds:sky clear below 12,000 feet AGL
QC Flag:automated observation with no human augmentation